sensor_id;sensor_type;location;lat;lon;timestamp;temperature;humidity
12335;DHT22;6233;51.560;9.986;2022-09-21T00:01:48;7.60;99.90
12335;DHT22;6233;51.560;9.986;2022-09-21T00:04:50;7.60;99.90
12335;DHT22;6233;51.560;9.986;2022-09-21T00:07:52;7.50;99.90
12335;DHT22;6233;51.560;9.986;2022-09-21T00:10:53;7.50;99.90
12335;DHT22;6233;51.560;9.986;2022-09-21T00:13:58;7.50;99.90
12335;DHT22;6233;51.560;9.986;2022-09-21T00:17:01;7.50;99.90
12335;DHT22;6233;51.560;9.986;2022-09-21T00:20:04;7.50;99.90
12335;DHT22;6233;51.560;9.986;2022-09-21T00:23:06;7.50;99.90
12335;DHT22;6233;51.560;9.986;2022-09-21T00:26:12;7.50;99.90
12335;DHT22;6233;51.560;9.986;2022-09-21T00:29:14;7.40;99.90
12335;DHT22;6233;51.560;9.986;2022-09-21T00:32:15;7.50;99.90
12335;DHT22;6233;51.560;9.986;2022-09-21T00:35:17;7.50;99.90
12335;DHT22;6233;51.560;9.986;2022-09-21T00:38:19;7.50;99.90
12335;DHT22;6233;51.560;9.986;2022-09-21T00:41:21;7.50;99.90
12335;DHT22;6233;51.560;9.986;2022-09-21T00:44:32;7.50;99.90
12335;DHT22;6233;51.560;9.986;2022-09-21T00:47:42;7.50;99.90
12335;DHT22;6233;51.560;9.986;2022-09-21T00:50:52;7.50;99.90
12335;DHT22;6233;51.560;9.986;2022-09-21T00:54:00;7.40;99.90
12335;DHT22;6233;51.560;9.986;2022-09-21T00:57:04;7.40;99.90
12335;DHT22;6233;51.560;9.986;2022-09-21T01:00:08;7.40;99.90
12335;DHT22;6233;51.560;9.986;2022-09-21T01:03:11;7.40;99.90
12335;DHT22;6233;51.560;9.986;2022-09-21T01:06:15;7.30;99.90
12335;DHT22;6233;51.560;9.986;2022-09-21T01:09:21;7.40;99.90
12335;DHT22;6233;51.560;9.986;2022-09-21T01:16:14;7.30;99.90
12335;DHT22;6233;51.560;9.986;2022-09-21T01:30:00;7.10;99.90
12335;DHT22;6233;51.560;9.986;2022-09-21T01:33:27;7.10;99.90
12335;DHT22;6233;51.560;9.986;2022-09-21T01:36:31;7.10;99.90
12335;DHT22;6233;51.560;9.986;2022-09-21T01:39:36;7.00;99.90
12335;DHT22;6233;51.560;9.986;2022-09-21T01:42:40;7.00;99.90
12335;DHT22;6233;51.560;9.986;2022-09-21T01:45:48;7.00;99.90
12335;DHT22;6233;51.560;9.986;2022-09-21T01:48:58;7.00;99.90
12335;DHT22;6233;51.560;9.986;2022-09-21T01:52:06;7.00;99.90
12335;DHT22;6233;51.560;9.986;2022-09-21T01:55:22;7.00;99.90
12335;DHT22;6233;51.560;9.986;2022-09-21T01:58:41;7.00;99.90
12335;DHT22;6233;51.560;9.986;2022-09-21T02:01:49;7.00;99.90
12335;DHT22;6233;51.560;9.986;2022-09-21T02:04:52;6.90;99.90
12335;DHT22;6233;51.560;9.986;2022-09-21T02:07:54;6.90;99.90
12335;DHT22;6233;51.560;9.986;2022-09-21T02:10:56;6.80;99.90
12335;DHT22;6233;51.560;9.986;2022-09-21T02:14:00;6.80;99.90
12335;DHT22;6233;51.560;9.986;2022-09-21T02:20:32;6.70;99.90
12335;DHT22;6233;51.560;9.986;2022-09-21T02:23:42;6.70;99.90
12335;DHT22;6233;51.560;9.986;2022-09-21T02:30:21;6.80;99.90
12335;DHT22;6233;51.560;9.986;2022-09-21T02:33:33;6.80;99.90
12335;DHT22;6233;51.560;9.986;2022-09-21T02:37:06;6.80;99.90
12335;DHT22;6233;51.560;9.986;2022-09-21T02:41:07;6.80;99.90
12335;DHT22;6233;51.560;9.986;2022-09-21T02:43:51;6.80;99.90
12335;DHT22;6233;51.560;9.986;2022-09-21T02:47:02;6.70;99.90
12335;DHT22;6233;51.560;9.986;2022-09-21T02:50:11;6.70;99.90
12335;DHT22;6233;51.560;9.986;2022-09-21T02:53:18;6.70;99.90
12335;DHT22;6233;51.560;9.986;2022-09-21T02:56:21;6.70;99.90
12335;DHT22;6233;51.560;9.986;2022-09-21T02:59:24;6.70;99.90
12335;DHT22;6233;51.560;9.986;2022-09-21T03:02:41;6.70;99.90
12335;DHT22;6233;51.560;9.986;2022-09-21T03:05:45;6.70;99.90
12335;DHT22;6233;51.560;9.986;2022-09-21T03:08:49;6.70;99.90
12335;DHT22;6233;51.560;9.986;2022-09-21T03:11:51;6.70;99.90
12335;DHT22;6233;51.560;9.986;2022-09-21T03:14:53;6.60;99.90
12335;DHT22;6233;51.560;9.986;2022-09-21T03:17:54;6.60;99.90
12335;DHT22;6233;51.560;9.986;2022-09-21T03:20:56;6.70;99.90
12335;DHT22;6233;51.560;9.986;2022-09-21T03:23:58;6.60;99.90
12335;DHT22;6233;51.560;9.986;2022-09-21T03:26:59;6.60;99.90
12335;DHT22;6233;51.560;9.986;2022-09-21T03:30:01;6.60;99.90
12335;DHT22;6233;51.560;9.986;2022-09-21T03:33:03;6.60;99.90
12335;DHT22;6233;51.560;9.986;2022-09-21T03:36:09;6.60;99.90
12335;DHT22;6233;51.560;9.986;2022-09-21T03:39:10;6.60;99.90
12335;DHT22;6233;51.560;9.986;2022-09-21T03:42:12;6.50;99.90
12335;DHT22;6233;51.560;9.986;2022-09-21T03:45:14;6.50;99.90
12335;DHT22;6233;51.560;9.986;2022-09-21T03:48:16;6.50;99.90
12335;DHT22;6233;51.560;9.986;2022-09-21T03:51:17;6.50;99.90
12335;DHT22;6233;51.560;9.986;2022-09-21T03:54:19;6.50;99.90
12335;DHT22;6233;51.560;9.986;2022-09-21T03:57:35;6.50;99.90
12335;DHT22;6233;51.560;9.986;2022-09-21T04:00:37;6.50;99.90
12335;DHT22;6233;51.560;9.986;2022-09-21T04:03:39;6.50;99.90
12335;DHT22;6233;51.560;9.986;2022-09-21T04:06:41;6.50;99.90
12335;DHT22;6233;51.560;9.986;2022-09-21T04:09:43;6.50;99.90
12335;DHT22;6233;51.560;9.986;2022-09-21T04:12:45;6.50;99.90
12335;DHT22;6233;51.560;9.986;2022-09-21T04:15:47;6.50;99.90
12335;DHT22;6233;51.560;9.986;2022-09-21T04:18:49;6.50;99.90
12335;DHT22;6233;51.560;9.986;2022-09-21T04:21:50;6.40;99.90
12335;DHT22;6233;51.560;9.986;2022-09-21T04:24:52;6.50;99.90
12335;DHT22;6233;51.560;9.986;2022-09-21T04:27:54;6.50;99.90
12335;DHT22;6233;51.560;9.986;2022-09-21T04:30:55;6.40;99.90
12335;DHT22;6233;51.560;9.986;2022-09-21T04:33:57;6.40;99.90
12335;DHT22;6233;51.560;9.986;2022-09-21T04:36:59;6.50;99.90
12335;DHT22;6233;51.560;9.986;2022-09-21T04:40:01;6.40;99.90
12335;DHT22;6233;51.560;9.986;2022-09-21T04:43:03;6.40;99.90
12335;DHT22;6233;51.560;9.986;2022-09-21T04:46:10;6.50;99.90
12335;DHT22;6233;51.560;9.986;2022-09-21T04:49:12;6.50;99.90
12335;DHT22;6233;51.560;9.986;2022-09-21T04:52:14;6.50;99.90
12335;DHT22;6233;51.560;9.986;2022-09-21T04:55:19;6.50;99.90
12335;DHT22;6233;51.560;9.986;2022-09-21T04:58:22;6.50;99.90
12335;DHT22;6233;51.560;9.986;2022-09-21T05:01:25;6.50;99.90
12335;DHT22;6233;51.560;9.986;2022-09-21T05:04:26;6.40;99.90
12335;DHT22;6233;51.560;9.986;2022-09-21T05:07:28;6.50;99.90
12335;DHT22;6233;51.560;9.986;2022-09-21T05:10:30;6.60;99.90
12335;DHT22;6233;51.560;9.986;2022-09-21T05:13:31;6.40;99.90
12335;DHT22;6233;51.560;9.986;2022-09-21T05:16:34;6.40;99.90
12335;DHT22;6233;51.560;9.986;2022-09-21T05:19:36;6.40;99.90
12335;DHT22;6233;51.560;9.986;2022-09-21T05:22:37;6.40;99.90
12335;DHT22;6233;51.560;9.986;2022-09-21T05:25:39;6.50;99.90
12335;DHT22;6233;51.560;9.986;2022-09-21T05:28:41;6.50;99.90
12335;DHT22;6233;51.560;9.986;2022-09-21T05:31:57;6.40;99.90
12335;DHT22;6233;51.560;9.986;2022-09-21T05:38:31;6.50;99.90
12335;DHT22;6233;51.560;9.986;2022-09-21T05:41:33;6.60;99.90
12335;DHT22;6233;51.560;9.986;2022-09-21T05:44:35;6.60;99.90
12335;DHT22;6233;51.560;9.986;2022-09-21T05:51:29;6.70;99.90
12335;DHT22;6233;51.560;9.986;2022-09-21T05:54:54;6.80;99.90
12335;DHT22;6233;51.560;9.986;2022-09-21T06:01:24;7.00;99.90
12335;DHT22;6233;51.560;9.986;2022-09-21T06:04:30;7.00;99.90
12335;DHT22;6233;51.560;9.986;2022-09-21T06:07:31;7.10;99.90
12335;DHT22;6233;51.560;9.986;2022-09-21T06:10:34;7.10;99.90
12335;DHT22;6233;51.560;9.986;2022-09-21T06:13:36;7.10;99.90
12335;DHT22;6233;51.560;9.986;2022-09-21T06:16:39;7.20;99.90
12335;DHT22;6233;51.560;9.986;2022-09-21T06:19:41;7.20;99.90
12335;DHT22;6233;51.560;9.986;2022-09-21T06:22:45;7.30;99.90
12335;DHT22;6233;51.560;9.986;2022-09-21T06:25:51;7.30;99.90
12335;DHT22;6233;51.560;9.986;2022-09-21T06:28:59;7.40;99.90
12335;DHT22;6233;51.560;9.986;2022-09-21T06:32:12;7.50;99.90
12335;DHT22;6233;51.560;9.986;2022-09-21T06:35:13;7.60;99.90
12335;DHT22;6233;51.560;9.986;2022-09-21T06:38:15;7.60;99.90
12335;DHT22;6233;51.560;9.986;2022-09-21T06:41:17;7.60;99.90
12335;DHT22;6233;51.560;9.986;2022-09-21T06:44:22;7.70;99.90
12335;DHT22;6233;51.560;9.986;2022-09-21T06:47:23;7.70;99.90
12335;DHT22;6233;51.560;9.986;2022-09-21T06:50:25;7.80;99.90
12335;DHT22;6233;51.560;9.986;2022-09-21T06:53:28;7.90;99.90
12335;DHT22;6233;51.560;9.986;2022-09-21T06:56:30;8.00;99.90
12335;DHT22;6233;51.560;9.986;2022-09-21T06:59:32;8.10;99.90
12335;DHT22;6233;51.560;9.986;2022-09-21T07:02:34;8.10;99.90
12335;DHT22;6233;51.560;9.986;2022-09-21T07:05:35;8.20;99.90
12335;DHT22;6233;51.560;9.986;2022-09-21T07:09:02;8.20;99.90
12335;DHT22;6233;51.560;9.986;2022-09-21T07:12:24;8.30;99.90
12335;DHT22;6233;51.560;9.986;2022-09-21T07:15:26;8.30;99.90
12335;DHT22;6233;51.560;9.986;2022-09-21T07:18:30;8.40;99.90
12335;DHT22;6233;51.560;9.986;2022-09-21T07:21:43;8.60;99.90
12335;DHT22;6233;51.560;9.986;2022-09-21T07:24:45;8.70;99.90
12335;DHT22;6233;51.560;9.986;2022-09-21T07:27:47;8.80;99.90
12335;DHT22;6233;51.560;9.986;2022-09-21T07:30:48;8.90;99.90
12335;DHT22;6233;51.560;9.986;2022-09-21T07:33:55;9.00;99.90
12335;DHT22;6233;51.560;9.986;2022-09-21T07:36:58;9.30;99.90
12335;DHT22;6233;51.560;9.986;2022-09-21T07:40:00;9.50;99.90
12335;DHT22;6233;51.560;9.986;2022-09-21T07:43:06;9.70;99.90
12335;DHT22;6233;51.560;9.986;2022-09-21T07:46:10;9.90;99.90
12335;DHT22;6233;51.560;9.986;2022-09-21T07:49:12;9.90;99.90
12335;DHT22;6233;51.560;9.986;2022-09-21T07:52:13;10.10;99.90
12335;DHT22;6233;51.560;9.986;2022-09-21T07:55:16;10.20;99.90
12335;DHT22;6233;51.560;9.986;2022-09-21T07:58:18;10.20;99.90
12335;DHT22;6233;51.560;9.986;2022-09-21T08:01:40;10.40;99.90
12335;DHT22;6233;51.560;9.986;2022-09-21T08:04:42;10.60;99.90
12335;DHT22;6233;51.560;9.986;2022-09-21T08:07:43;10.70;99.90
12335;DHT22;6233;51.560;9.986;2022-09-21T08:10:45;11.00;99.90
12335;DHT22;6233;51.560;9.986;2022-09-21T08:14:08;11.30;99.90
12335;DHT22;6233;51.560;9.986;2022-09-21T08:17:10;11.30;99.90
12335;DHT22;6233;51.560;9.986;2022-09-21T08:20:11;11.40;99.90
12335;DHT22;6233;51.560;9.986;2022-09-21T08:23:14;11.60;99.90
12335;DHT22;6233;51.560;9.986;2022-09-21T08:26:18;11.50;99.90
12335;DHT22;6233;51.560;9.986;2022-09-21T08:29:20;11.60;99.90
12335;DHT22;6233;51.560;9.986;2022-09-21T08:32:22;11.60;99.90
12335;DHT22;6233;51.560;9.986;2022-09-21T08:35:51;11.90;99.90
12335;DHT22;6233;51.560;9.986;2022-09-21T08:38:53;11.90;99.90
12335;DHT22;6233;51.560;9.986;2022-09-21T08:45:25;12.20;99.90
12335;DHT22;6233;51.560;9.986;2022-09-21T08:48:31;12.50;99.90
12335;DHT22;6233;51.560;9.986;2022-09-21T08:51:45;12.90;99.90
12335;DHT22;6233;51.560;9.986;2022-09-21T08:57:52;13.40;99.90
12335;DHT22;6233;51.560;9.986;2022-09-21T09:01:42;13.60;99.90
12335;DHT22;6233;51.560;9.986;2022-09-21T09:08:27;14.00;99.90
12335;DHT22;6233;51.560;9.986;2022-09-21T09:12:45;14.00;99.90
12335;DHT22;6233;51.560;9.986;2022-09-21T09:18:50;14.00;99.90
12335;DHT22;6233;51.560;9.986;2022-09-21T09:21:54;13.90;99.90
12335;DHT22;6233;51.560;9.986;2022-09-21T09:25:03;13.90;99.90
12335;DHT22;6233;51.560;9.986;2022-09-21T09:28:36;13.80;99.90
12335;DHT22;6233;51.560;9.986;2022-09-21T09:31:40;13.70;99.90
12335;DHT22;6233;51.560;9.986;2022-09-21T09:35:01;13.80;99.90
12335;DHT22;6233;51.560;9.986;2022-09-21T09:38:33;13.60;99.90
12335;DHT22;6233;51.560;9.986;2022-09-21T09:45:22;13.60;99.90
12335;DHT22;6233;51.560;9.986;2022-09-21T09:52:08;13.80;99.90
12335;DHT22;6233;51.560;9.986;2022-09-21T09:55:23;13.80;99.90
12335;DHT22;6233;51.560;9.986;2022-09-21T09:58:34;13.90;99.90
12335;DHT22;6233;51.560;9.986;2022-09-21T10:01:40;13.90;99.90
12335;DHT22;6233;51.560;9.986;2022-09-21T10:04:58;13.90;99.90
12335;DHT22;6233;51.560;9.986;2022-09-21T10:11:37;13.90;99.90
12335;DHT22;6233;51.560;9.986;2022-09-21T10:14:47;14.00;99.90
12335;DHT22;6233;51.560;9.986;2022-09-21T10:21:42;14.60;99.90
12335;DHT22;6233;51.560;9.986;2022-09-21T10:24:50;15.00;99.90
12335;DHT22;6233;51.560;9.986;2022-09-21T10:27:54;15.40;99.90
12335;DHT22;6233;51.560;9.986;2022-09-21T10:31:32;15.60;99.90
12335;DHT22;6233;51.560;9.986;2022-09-21T10:34:34;15.80;99.90
12335;DHT22;6233;51.560;9.986;2022-09-21T10:37:37;15.60;99.90
12335;DHT22;6233;51.560;9.986;2022-09-21T10:40:58;15.50;99.90
12335;DHT22;6233;51.560;9.986;2022-09-21T10:43:59;15.40;99.90
12335;DHT22;6233;51.560;9.986;2022-09-21T10:47:12;15.30;99.90
12335;DHT22;6233;51.560;9.986;2022-09-21T10:50:40;15.40;99.90
12335;DHT22;6233;51.560;9.986;2022-09-21T10:53:46;15.50;99.90
12335;DHT22;6233;51.560;9.986;2022-09-21T10:56:59;15.70;99.90
12335;DHT22;6233;51.560;9.986;2022-09-21T11:06:52;16.20;99.90
12335;DHT22;6233;51.560;9.986;2022-09-21T11:10:00;16.20;99.90
12335;DHT22;6233;51.560;9.986;2022-09-21T11:27:37;16.40;99.90
12335;DHT22;6233;51.560;9.986;2022-09-21T11:34:39;16.40;99.90
12335;DHT22;6233;51.560;9.986;2022-09-21T11:37:53;16.30;99.90
12335;DHT22;6233;51.560;9.986;2022-09-21T11:48:11;16.10;99.90
12335;DHT22;6233;51.560;9.986;2022-09-21T11:58:50;15.80;99.90
12335;DHT22;6233;51.560;9.986;2022-09-21T12:01:58;15.70;99.90
12335;DHT22;6233;51.560;9.986;2022-09-21T12:05:23;15.70;99.90
12335;DHT22;6233;51.560;9.986;2022-09-21T12:22:40;15.50;99.90
12335;DHT22;6233;51.560;9.986;2022-09-21T12:25:49;15.60;99.90
12335;DHT22;6233;51.560;9.986;2022-09-21T12:29:25;15.60;99.90
12335;DHT22;6233;51.560;9.986;2022-09-21T12:36:12;15.80;99.90
12335;DHT22;6233;51.560;9.986;2022-09-21T12:39:23;15.90;99.90
12335;DHT22;6233;51.560;9.986;2022-09-21T12:42:40;15.90;99.90
12335;DHT22;6233;51.560;9.986;2022-09-21T12:45:52;15.80;99.90
12335;DHT22;6233;51.560;9.986;2022-09-21T12:48:56;15.90;99.90
12335;DHT22;6233;51.560;9.986;2022-09-21T12:52:01;15.90;99.90
12335;DHT22;6233;51.560;9.986;2022-09-21T13:01:42;15.80;99.90
12335;DHT22;6233;51.560;9.986;2022-09-21T13:08:18;15.80;99.90
12335;DHT22;6233;51.560;9.986;2022-09-21T13:11:25;15.90;99.90
12335;DHT22;6233;51.560;9.986;2022-09-21T13:14:29;15.80;99.90
12335;DHT22;6233;51.560;9.986;2022-09-21T13:17:35;15.80;99.90
12335;DHT22;6233;51.560;9.986;2022-09-21T13:20:38;15.80;99.90
12335;DHT22;6233;51.560;9.986;2022-09-21T13:23:41;15.80;99.90
12335;DHT22;6233;51.560;9.986;2022-09-21T13:26:50;15.60;99.90
12335;DHT22;6233;51.560;9.986;2022-09-21T13:33:37;15.50;99.90
12335;DHT22;6233;51.560;9.986;2022-09-21T13:36:40;15.50;99.90
12335;DHT22;6233;51.560;9.986;2022-09-21T13:42:51;15.40;99.90
12335;DHT22;6233;51.560;9.986;2022-09-21T13:45:54;15.30;99.90
12335;DHT22;6233;51.560;9.986;2022-09-21T13:48:57;15.20;99.90
12335;DHT22;6233;51.560;9.986;2022-09-21T13:55:05;15.00;99.90
12335;DHT22;6233;51.560;9.986;2022-09-21T13:58:18;15.00;99.90
12335;DHT22;6233;51.560;9.986;2022-09-21T14:01:33;15.00;99.90
12335;DHT22;6233;51.560;9.986;2022-09-21T14:04:48;14.90;99.90
12335;DHT22;6233;51.560;9.986;2022-09-21T14:08:01;14.90;99.90
12335;DHT22;6233;51.560;9.986;2022-09-21T14:11:34;14.80;99.90
12335;DHT22;6233;51.560;9.986;2022-09-21T14:14:37;14.80;99.90
12335;DHT22;6233;51.560;9.986;2022-09-21T14:17:41;14.70;99.90
12335;DHT22;6233;51.560;9.986;2022-09-21T14:21:08;14.70;99.90
12335;DHT22;6233;51.560;9.986;2022-09-21T14:24:21;14.70;99.90
12335;DHT22;6233;51.560;9.986;2022-09-21T14:27:39;14.60;99.90
12335;DHT22;6233;51.560;9.986;2022-09-21T14:30:54;14.70;99.90
12335;DHT22;6233;51.560;9.986;2022-09-21T14:33:59;14.80;99.90
12335;DHT22;6233;51.560;9.986;2022-09-21T14:37:27;14.60;99.90
12335;DHT22;6233;51.560;9.986;2022-09-21T14:40:39;14.60;99.90
12335;DHT22;6233;51.560;9.986;2022-09-21T14:43:51;14.70;99.90
12335;DHT22;6233;51.560;9.986;2022-09-21T14:47:40;14.60;99.90
12335;DHT22;6233;51.560;9.986;2022-09-21T14:50:59;14.80;99.90
12335;DHT22;6233;51.560;9.986;2022-09-21T15:00:48;14.60;99.90
12335;DHT22;6233;51.560;9.986;2022-09-21T15:04:22;14.70;99.90
12335;DHT22;6233;51.560;9.986;2022-09-21T15:07:41;14.60;99.90
12335;DHT22;6233;51.560;9.986;2022-09-21T15:11:27;14.60;99.90
12335;DHT22;6233;51.560;9.986;2022-09-21T15:14:38;14.60;99.90
12335;DHT22;6233;51.560;9.986;2022-09-21T15:17:55;14.70;99.90
12335;DHT22;6233;51.560;9.986;2022-09-21T15:21:02;14.60;99.90
12335;DHT22;6233;51.560;9.986;2022-09-21T15:27:29;14.70;99.90
12335;DHT22;6233;51.560;9.986;2022-09-21T15:30:41;14.80;99.90
12335;DHT22;6233;51.560;9.986;2022-09-21T15:33:46;14.70;99.90
12335;DHT22;6233;51.560;9.986;2022-09-21T15:36:49;15.00;99.90
12335;DHT22;6233;51.560;9.986;2022-09-21T15:40:05;14.80;99.90
12335;DHT22;6233;51.560;9.986;2022-09-21T15:46:17;14.70;99.90
12335;DHT22;6233;51.560;9.986;2022-09-21T15:49:20;14.80;99.90
12335;DHT22;6233;51.560;9.986;2022-09-21T15:52:40;14.70;99.90
12335;DHT22;6233;51.560;9.986;2022-09-21T15:55:47;14.70;99.90
12335;DHT22;6233;51.560;9.986;2022-09-21T15:58:49;14.80;99.90
12335;DHT22;6233;51.560;9.986;2022-09-21T16:01:53;14.70;99.90
12335;DHT22;6233;51.560;9.986;2022-09-21T16:04:55;14.70;99.90
12335;DHT22;6233;51.560;9.986;2022-09-21T16:08:20;14.60;99.90
12335;DHT22;6233;51.560;9.986;2022-09-21T16:14:28;14.60;99.90
12335;DHT22;6233;51.560;9.986;2022-09-21T16:17:58;14.50;99.90
12335;DHT22;6233;51.560;9.986;2022-09-21T16:21:08;14.40;99.90
12335;DHT22;6233;51.560;9.986;2022-09-21T16:24:18;14.40;99.90
12335;DHT22;6233;51.560;9.986;2022-09-21T16:27:23;14.40;99.90
12335;DHT22;6233;51.560;9.986;2022-09-21T16:30:46;14.30;99.90
12335;DHT22;6233;51.560;9.986;2022-09-21T16:36:51;14.20;99.90
12335;DHT22;6233;51.560;9.986;2022-09-21T16:39:56;14.10;99.90
12335;DHT22;6233;51.560;9.986;2022-09-21T16:42:58;14.10;99.90
12335;DHT22;6233;51.560;9.986;2022-09-21T16:46:00;14.00;99.90
12335;DHT22;6233;51.560;9.986;2022-09-21T16:49:04;14.10;99.90
12335;DHT22;6233;51.560;9.986;2022-09-21T16:52:11;14.10;99.90
12335;DHT22;6233;51.560;9.986;2022-09-21T16:55:13;14.00;99.90
12335;DHT22;6233;51.560;9.986;2022-09-21T16:58:16;13.90;99.90
12335;DHT22;6233;51.560;9.986;2022-09-21T17:01:20;13.80;99.90
12335;DHT22;6233;51.560;9.986;2022-09-21T17:04:40;13.70;99.90
12335;DHT22;6233;51.560;9.986;2022-09-21T17:07:54;13.70;99.90
12335;DHT22;6233;51.560;9.986;2022-09-21T17:10:56;13.60;99.90
12335;DHT22;6233;51.560;9.986;2022-09-21T17:13:58;13.60;99.90
12335;DHT22;6233;51.560;9.986;2022-09-21T17:17:37;13.50;99.90
12335;DHT22;6233;51.560;9.986;2022-09-21T17:20:51;13.50;99.90
12335;DHT22;6233;51.560;9.986;2022-09-21T17:23:53;13.30;99.90
12335;DHT22;6233;51.560;9.986;2022-09-21T17:26:54;13.30;99.90
12335;DHT22;6233;51.560;9.986;2022-09-21T17:29:56;13.30;99.90
12335;DHT22;6233;51.560;9.986;2022-09-21T17:32:58;13.20;99.90
12335;DHT22;6233;51.560;9.986;2022-09-21T17:36:01;13.20;99.90
12335;DHT22;6233;51.560;9.986;2022-09-21T17:39:06;13.10;99.90
12335;DHT22;6233;51.560;9.986;2022-09-21T17:42:16;13.00;99.90
12335;DHT22;6233;51.560;9.986;2022-09-21T17:45:33;12.90;99.90
12335;DHT22;6233;51.560;9.986;2022-09-21T17:48:39;12.80;99.90
12335;DHT22;6233;51.560;9.986;2022-09-21T17:51:41;12.80;99.90
12335;DHT22;6233;51.560;9.986;2022-09-21T17:55:02;12.70;99.90
12335;DHT22;6233;51.560;9.986;2022-09-21T17:58:26;12.50;99.90
12335;DHT22;6233;51.560;9.986;2022-09-21T18:01:35;12.30;99.90
12335;DHT22;6233;51.560;9.986;2022-09-21T18:04:39;12.20;99.90
12335;DHT22;6233;51.560;9.986;2022-09-21T18:07:41;12.10;99.90
12335;DHT22;6233;51.560;9.986;2022-09-21T18:11:09;12.00;99.90
12335;DHT22;6233;51.560;9.986;2022-09-21T18:21:19;11.90;99.90
12335;DHT22;6233;51.560;9.986;2022-09-21T18:24:26;11.90;99.90
12335;DHT22;6233;51.560;9.986;2022-09-21T18:27:32;11.90;99.90
12335;DHT22;6233;51.560;9.986;2022-09-21T18:30:42;11.80;99.90
12335;DHT22;6233;51.560;9.986;2022-09-21T18:34:12;11.80;99.90
12335;DHT22;6233;51.560;9.986;2022-09-21T18:40:56;11.70;99.90
12335;DHT22;6233;51.560;9.986;2022-09-21T18:44:17;11.60;99.90
12335;DHT22;6233;51.560;9.986;2022-09-21T18:47:31;11.60;99.90
12335;DHT22;6233;51.560;9.986;2022-09-21T18:50:49;11.50;99.90
12335;DHT22;6233;51.560;9.986;2022-09-21T18:53:55;11.40;99.90
12335;DHT22;6233;51.560;9.986;2022-09-21T18:56:57;11.40;99.90
12335;DHT22;6233;51.560;9.986;2022-09-21T18:59:59;11.30;99.90
12335;DHT22;6233;51.560;9.986;2022-09-21T19:03:12;11.30;99.90
12335;DHT22;6233;51.560;9.986;2022-09-21T19:09:52;11.30;99.90
12335;DHT22;6233;51.560;9.986;2022-09-21T19:33:18;11.10;99.90
12335;DHT22;6233;51.560;9.986;2022-09-21T19:36:41;11.10;99.90
12335;DHT22;6233;51.560;9.986;2022-09-21T19:39:43;11.10;99.90
12335;DHT22;6233;51.560;9.986;2022-09-21T19:46:19;11.00;99.90
12335;DHT22;6233;51.560;9.986;2022-09-21T19:49:29;11.00;99.90
12335;DHT22;6233;51.560;9.986;2022-09-21T19:52:34;11.00;99.90
12335;DHT22;6233;51.560;9.986;2022-09-21T19:55:36;10.90;99.90
12335;DHT22;6233;51.560;9.986;2022-09-21T19:58:58;10.90;99.90
12335;DHT22;6233;51.560;9.986;2022-09-21T20:02:29;10.90;99.90
12335;DHT22;6233;51.560;9.986;2022-09-21T20:05:53;10.90;99.90
12335;DHT22;6233;51.560;9.986;2022-09-21T20:09:05;11.00;99.90
12335;DHT22;6233;51.560;9.986;2022-09-21T20:12:20;11.00;99.90
12335;DHT22;6233;51.560;9.986;2022-09-21T20:15:28;10.80;99.90
12335;DHT22;6233;51.560;9.986;2022-09-21T20:18:59;11.00;99.90
12335;DHT22;6233;51.560;9.986;2022-09-21T20:22:12;11.00;99.90
12335;DHT22;6233;51.560;9.986;2022-09-21T20:25:30;11.00;99.90
12335;DHT22;6233;51.560;9.986;2022-09-21T20:28:32;10.90;99.90
12335;DHT22;6233;51.560;9.986;2022-09-21T20:31:36;10.90;99.90
12335;DHT22;6233;51.560;9.986;2022-09-21T20:34:40;10.90;99.90
12335;DHT22;6233;51.560;9.986;2022-09-21T20:37:43;10.90;99.90
12335;DHT22;6233;51.560;9.986;2022-09-21T20:40:50;10.90;99.90
12335;DHT22;6233;51.560;9.986;2022-09-21T20:43:52;10.90;99.90
12335;DHT22;6233;51.560;9.986;2022-09-21T20:46:53;11.00;99.90
12335;DHT22;6233;51.560;9.986;2022-09-21T20:49:55;10.90;99.90
12335;DHT22;6233;51.560;9.986;2022-09-21T20:52:56;10.80;99.90
12335;DHT22;6233;51.560;9.986;2022-09-21T20:55:59;10.80;99.90
12335;DHT22;6233;51.560;9.986;2022-09-21T20:59:02;10.70;99.90
12335;DHT22;6233;51.560;9.986;2022-09-21T21:02:04;10.60;99.90
12335;DHT22;6233;51.560;9.986;2022-09-21T21:05:09;10.80;99.90
12335;DHT22;6233;51.560;9.986;2022-09-21T21:08:11;11.10;99.90
12335;DHT22;6233;51.560;9.986;2022-09-21T21:11:13;10.70;99.90
12335;DHT22;6233;51.560;9.986;2022-09-21T21:14:14;10.60;99.90
12335;DHT22;6233;51.560;9.986;2022-09-21T21:17:16;10.70;99.90
12335;DHT22;6233;51.560;9.986;2022-09-21T21:20:19;10.60;99.90
12335;DHT22;6233;51.560;9.986;2022-09-21T21:23:20;10.50;99.90
12335;DHT22;6233;51.560;9.986;2022-09-21T21:26:22;10.60;99.90
12335;DHT22;6233;51.560;9.986;2022-09-21T21:29:48;10.60;99.90
12335;DHT22;6233;51.560;9.986;2022-09-21T21:32:50;10.60;99.90
12335;DHT22;6233;51.560;9.986;2022-09-21T21:36:05;10.50;99.90
12335;DHT22;6233;51.560;9.986;2022-09-21T21:39:08;10.50;99.90
12335;DHT22;6233;51.560;9.986;2022-09-21T21:42:11;10.50;99.90
12335;DHT22;6233;51.560;9.986;2022-09-21T21:45:13;10.50;99.90
12335;DHT22;6233;51.560;9.986;2022-09-21T21:48:16;10.40;99.90
12335;DHT22;6233;51.560;9.986;2022-09-21T21:51:18;10.30;99.90
12335;DHT22;6233;51.560;9.986;2022-09-21T21:54:21;10.30;99.90
12335;DHT22;6233;51.560;9.986;2022-09-21T21:57:23;10.20;99.90
12335;DHT22;6233;51.560;9.986;2022-09-21T22:00:25;10.20;99.90
12335;DHT22;6233;51.560;9.986;2022-09-21T22:03:26;10.10;99.90
12335;DHT22;6233;51.560;9.986;2022-09-21T22:06:29;10.10;99.90
12335;DHT22;6233;51.560;9.986;2022-09-21T22:09:31;10.10;99.90
12335;DHT22;6233;51.560;9.986;2022-09-21T22:12:33;10.10;99.90
12335;DHT22;6233;51.560;9.986;2022-09-21T22:15:49;10.00;99.90
12335;DHT22;6233;51.560;9.986;2022-09-21T22:18:51;10.00;99.90
12335;DHT22;6233;51.560;9.986;2022-09-21T22:21:53;9.90;99.90
12335;DHT22;6233;51.560;9.986;2022-09-21T22:24:56;9.80;99.90
12335;DHT22;6233;51.560;9.986;2022-09-21T22:27:58;9.80;99.90
12335;DHT22;6233;51.560;9.986;2022-09-21T22:31:07;9.50;99.90
12335;DHT22;6233;51.560;9.986;2022-09-21T22:34:10;9.80;99.90
12335;DHT22;6233;51.560;9.986;2022-09-21T22:37:12;9.50;99.90
12335;DHT22;6233;51.560;9.986;2022-09-21T22:40:14;9.30;99.90
12335;DHT22;6233;51.560;9.986;2022-09-21T22:43:16;9.30;99.90
12335;DHT22;6233;51.560;9.986;2022-09-21T22:46:18;9.30;99.90
12335;DHT22;6233;51.560;9.986;2022-09-21T22:49:20;9.30;99.90
12335;DHT22;6233;51.560;9.986;2022-09-21T22:52:22;9.30;99.90
12335;DHT22;6233;51.560;9.986;2022-09-21T22:55:23;9.50;99.90
12335;DHT22;6233;51.560;9.986;2022-09-21T22:58:25;9.30;99.90
12335;DHT22;6233;51.560;9.986;2022-09-21T23:01:29;9.20;99.90
12335;DHT22;6233;51.560;9.986;2022-09-21T23:04:31;9.20;99.90
12335;DHT22;6233;51.560;9.986;2022-09-21T23:07:33;9.10;99.90
12335;DHT22;6233;51.560;9.986;2022-09-21T23:10:35;8.90;99.90
12335;DHT22;6233;51.560;9.986;2022-09-21T23:13:36;8.90;99.90
12335;DHT22;6233;51.560;9.986;2022-09-21T23:16:38;8.90;99.90
12335;DHT22;6233;51.560;9.986;2022-09-21T23:19:40;8.90;99.90
12335;DHT22;6233;51.560;9.986;2022-09-21T23:22:41;8.90;99.90
12335;DHT22;6233;51.560;9.986;2022-09-21T23:25:43;8.90;99.90
12335;DHT22;6233;51.560;9.986;2022-09-21T23:28:50;8.90;99.90